Time;durP1;ratioP1;P1;durP2;ratioP2;P2;SDS_P1;SDS_P2;PMS_P1;PMS_P2;Temp;Humidity;BMP_temperature;BMP_pressure;BME280_temperature;BME280_humidity;BME280_pressure;Samples;Min_cycle;Max_cycle;Signal;HPM_P1;HPM_P2
2024/02/29 00:00:39;;;;;;;;;;;;;;;4.36;100.00;100491.56;4954326;29;831;-62
2024/02/29 00:03:08;;;;;;;;;;;;;;;4.39;100.00;100485.41;4954276;29;867;-62
2024/02/29 00:05:36;;;;;;;;;;;;;;;4.42;100.00;100491.00;4954190;29;843;-62
2024/02/29 00:08:02;;;;;;;;;;;;;;;4.39;100.00;100493.59;4954133;29;844;-61
2024/02/29 00:10:29;;;;;;;;;;;;;;;4.39;100.00;100490.88;4954166;29;831;-62
2024/02/29 00:12:55;;;;;;;;;;;;;;;4.42;100.00;100488.25;4954047;29;823;-63
2024/02/29 00:15:22;;;;;;;;;;;;;;;4.49;100.00;100487.66;4953968;29;1875;-63
2024/02/29 00:17:49;;;;;;;;;;;;;;;4.53;100.00;100491.31;4953931;29;828;-62
2024/02/29 00:20:16;;;;;;;;;;;;;;;4.53;100.00;100494.06;4954188;29;883;-62
2024/02/29 00:22:42;;;;;;;;;;;;;;;4.52;100.00;100500.66;4953455;28;832;-62
2024/02/29 00:25:09;;;;;;;;;;;;;;;4.56;100.00;100498.03;4953946;29;804;-62
2024/02/29 00:27:35;;;;;;;;;;;;;;;4.53;100.00;100494.06;4936733;29;1335;-61
2024/02/29 00:30:02;;;;;;;;;;;;;;;4.53;100.00;100496.00;4953834;29;863;-62
2024/02/29 00:32:29;;;;;;;;;;;;;;;4.50;100.00;100492.81;4953877;29;809;-62
2024/02/29 00:34:54;;;;;;;;;;;;;;;4.52;100.00;100489.72;4953758;29;1891;-63
2024/02/29 00:37:21;;;;;;;;;;;;;;;4.50;100.00;100486.53;4953709;29;859;-62
2024/02/29 00:39:47;;;;;;;;;;;;;;;4.49;100.00;100488.47;4953702;29;879;-62
2024/02/29 00:42:14;;;;;;;;;;;;;;;4.45;100.00;100484.81;4953807;29;800;-61
2024/02/29 00:44:40;;;;;;;;;;;;;;;4.43;100.00;100484.38;4953702;29;775;-61
2024/02/29 00:47:07;;;;;;;;;;;;;;;4.42;100.00;100477.31;4954088;29;903;-62
2024/02/29 00:49:35;;;;;;;;;;;;;;;4.45;100.00;100473.88;4953498;29;1504;-61
2024/02/29 00:52:01;;;;;;;;;;;;;;;4.41;100.00;100472.97;4953684;29;836;-62
2024/02/29 00:54:27;;;;;;;;;;;;;;;4.26;100.00;100473.66;4953687;29;835;-62
2024/02/29 00:56:54;;;;;;;;;;;;;;;4.26;100.00;100473.66;4953632;29;1910;-62
2024/02/29 00:59:20;;;;;;;;;;;;;;;4.16;100.00;100476.84;4953554;29;890;-61
2024/02/29 01:01:47;;;;;;;;;;;;;;;4.12;100.00;100471.28;4952300;29;1190;-61
2024/02/29 01:04:14;;;;;;;;;;;;;;;4.09;100.00;100463.75;4953583;29;859;-61
2024/02/29 01:06:40;;;;;;;;;;;;;;;4.04;100.00;100464.78;4953541;29;894;-61
2024/02/29 01:09:07;;;;;;;;;;;;;;;4.00;100.00;100465.81;4953563;29;851;-61
2024/02/29 01:11:34;;;;;;;;;;;;;;;3.96;100.00;100465.69;4953489;29;815;-61
2024/02/29 01:14:02;;;;;;;;;;;;;;;3.93;100.00;100477.31;4953539;29;852;-62
2024/02/29 01:16:29;;;;;;;;;;;;;;;3.99;100.00;100477.88;4953364;29;1950;-63
2024/02/29 01:18:57;;;;;;;;;;;;;;;4.00;100.00;100472.06;4953392;29;800;-63
2024/02/29 01:21:23;;;;;;;;;;;;;;;4.02;100.00;100474.47;4953357;29;937;-62
2024/02/29 01:23:50;;;;;;;;;;;;;;;4.05;100.00;100471.03;4953448;29;855;-62
2024/02/29 01:26:16;;;;;;;;;;;;;;;4.09;100.00;100472.75;4953308;29;859;-63
2024/02/29 01:28:43;;;;;;;;;;;;;;;4.09;100.00;100470.00;4953302;29;927;-62
2024/02/29 01:31:10;;;;;;;;;;;;;;;4.12;100.00;100465.81;4952101;29;1281;-63
2024/02/29 01:33:36;;;;;;;;;;;;;;;4.10;100.00;100462.63;4953855;28;851;-62
2024/02/29 01:36:03;;;;;;;;;;;;;;;4.06;100.00;100465.25;4955530;29;1955;-62
2024/02/29 01:38:29;;;;;;;;;;;;;;;3.95;100.00;100463.28;4956907;29;863;-63
2024/02/29 01:40:55;;;;;;;;;;;;;;;3.91;100.00;100462.41;4956831;29;852;-63
2024/02/29 01:43:22;;;;;;;;;;;;;;;3.92;100.00;100463.97;4956823;29;811;-62
2024/02/29 01:46:01;;;;;;;;;;;;;;;3.94;100.00;100469.91;4956843;29;1042;-62
2024/02/29 01:48:26;;;;;;;;;;;;;;;3.94;100.00;100473.44;4954578;29;1381;-62
2024/02/29 01:50:53;;;;;;;;;;;;;;;3.92;100.00;100470.25;4956752;29;807;-62
2024/02/29 01:53:19;;;;;;;;;;;;;;;3.92;100.00;100462.03;4956605;29;816;-62
2024/02/29 01:55:46;;;;;;;;;;;;;;;3.97;100.00;100471.94;4956488;29;1974;-62
2024/02/29 01:58:13;;;;;;;;;;;;;;;3.98;100.00;100471.63;4956570;29;832;-62
2024/02/29 02:00:39;;;;;;;;;;;;;;;4.01;100.00;100476.41;4956475;29;850;-62
2024/02/29 02:03:06;;;;;;;;;;;;;;;3.96;100.00;100473.09;4956485;29;881;-61
2024/02/29 02:05:32;;;;;;;;;;;;;;;3.92;100.00;100470.25;4955074;29;1462;-61
2024/02/29 02:07:59;;;;;;;;;;;;;;;3.91;100.00;100470.59;4956691;29;824;-62
2024/02/29 02:10:25;;;;;;;;;;;;;;;3.97;100.00;100470.03;4956225;29;773;-63
2024/02/29 02:12:52;;;;;;;;;;;;;;;3.99;100.00;100472.41;4956638;29;788;-62
2024/02/29 02:15:18;;;;;;;;;;;;;;;3.97;100.00;100471.94;4956081;29;1918;-63
2024/02/29 02:17:45;;;;;;;;;;;;;;;3.95;100.00;100466.03;4956283;29;855;-62
2024/02/29 02:20:17;;;;;;;;;;;;;;;3.96;100.00;100475.84;4956238;29;815;-61
2024/02/29 02:22:44;;;;;;;;;;;;;;;3.92;100.00;100469.44;4956120;29;831;-62
2024/02/29 02:25:11;;;;;;;;;;;;;;;3.87;100.00;100462.28;4955936;29;831;-61
2024/02/29 02:27:38;;;;;;;;;;;;;;;3.93;100.00;100466.38;4956009;29;923;-62
2024/02/29 02:30:07;;;;;;;;;;;;;;;3.99;100.00;100458.72;4938730;29;1182;-61
2024/02/29 02:32:34;;;;;;;;;;;;;;;3.96;100.00;100452.00;4955822;29;890;-62
2024/02/29 02:35:02;;;;;;;;;;;;;;;3.96;100.00;100451.22;4955904;29;1958;-62
2024/02/29 02:37:28;;;;;;;;;;;;;;;3.94;100.00;100448.03;4955755;29;847;-63
2024/02/29 02:39:54;;;;;;;;;;;;;;;3.87;100.00;100448.59;4955820;29;780;-62
2024/02/29 02:42:21;;;;;;;;;;;;;;;3.85;100.00;100453.63;4955821;29;866;-62
2024/02/29 02:44:47;;;;;;;;;;;;;;;3.70;100.00;100452.34;4955300;28;800;-61
2024/02/29 02:47:14;;;;;;;;;;;;;;;3.66;100.00;100456.91;4956155;29;975;-62
2024/02/29 02:49:41;;;;;;;;;;;;;;;3.65;100.00;100452.59;4955461;29;1321;-61
2024/02/29 02:52:08;;;;;;;;;;;;;;;3.58;100.00;100458.56;4955623;29;899;-61
2024/02/29 02:54:34;;;;;;;;;;;;;;;3.53;100.00;100458.03;4954271;29;1305;-62
2024/02/29 02:57:01;;;;;;;;;;;;;;;3.44;100.00;100458.13;4955518;29;1911;-62
2024/02/29 02:59:27;;;;;;;;;;;;;;;3.33;100.00;100457.75;4955512;29;887;-62
2024/02/29 03:01:54;;;;;;;;;;;;;;;3.29;100.00;100459.56;4955394;29;800;-61
2024/02/29 03:04:21;;;;;;;;;;;;;;;3.23;100.00;100456.22;4955423;29;800;-61
2024/02/29 03:06:46;;;;;;;;;;;;;;;3.25;100.00;100464.09;4955622;29;867;-62
2024/02/29 03:09:13;;;;;;;;;;;;;;;3.32;100.00;100453.41;4955372;29;874;-61
2024/02/29 03:11:40;;;;;;;;;;;;;;;3.37;100.00;100453.22;4955348;29;800;-61
2024/02/29 03:14:06;;;;;;;;;;;;;;;3.40;100.00;100460.72;4955174;29;903;-62
2024/02/29 03:16:35;;;;;;;;;;;;;;;3.47;100.00;100457.44;4955100;29;1886;-62
2024/02/29 03:19:04;;;;;;;;;;;;;;;3.51;100.00;100465.75;4955112;29;867;-63
2024/02/29 03:21:31;;;;;;;;;;;;;;;3.47;100.00;100466.41;4937816;29;1447;-62
2024/02/29 03:23:57;;;;;;;;;;;;;;;3.42;100.00;100472.09;4955073;29;823;-62
2024/02/29 03:26:24;;;;;;;;;;;;;;;3.46;100.00;100475.75;4955140;29;851;-62
2024/02/29 03:28:50;;;;;;;;;;;;;;;3.52;100.00;100473.63;4955140;29;868;-61
2024/02/29 03:31:17;;;;;;;;;;;;;;;3.57;100.00;100475.34;4954934;29;855;-61
2024/02/29 03:33:45;;;;;;;;;;;;;;;3.58;100.00;100482.38;4954786;29;958;-62
2024/02/29 03:36:12;;;;;;;;;;;;;;;3.53;100.00;100491.59;4954685;29;1945;-62
2024/02/29 03:38:40;;;;;;;;;;;;;;;3.49;100.00;100490.69;4954738;29;902;-62
2024/02/29 03:41:07;;;;;;;;;;;;;;;3.47;100.00;100492.97;4954696;29;808;-62
2024/02/29 03:43:37;;;;;;;;;;;;;;;3.47;100.00;100487.50;4953310;29;1218;-62
2024/02/29 03:46:03;;;;;;;;;;;;;;;3.48;100.00;100492.63;4954736;29;1033;-61
2024/02/29 03:48:29;;;;;;;;;;;;;;;3.44;100.00;100488.19;4937049;29;1390;-62
2024/02/29 03:50:56;;;;;;;;;;;;;;;3.45;100.00;100484.28;4954499;29;890;-61
2024/02/29 03:53:22;;;;;;;;;;;;;;;3.46;100.00;100494.09;4954472;29;824;-61
2024/02/29 03:55:49;;;;;;;;;;;;;;;3.49;100.00;100501.63;4954014;28;1910;-61
2024/02/29 03:58:15;;;;;;;;;;;;;;;3.35;100.00;100506.56;4953968;29;851;-62
2024/02/29 04:00:45;;;;;;;;;;;;;;;3.20;100.00;100499.81;4954459;29;808;-62
2024/02/29 04:03:11;;;;;;;;;;;;;;;3.11;100.00;100493.63;4954191;29;870;-61
2024/02/29 04:05:38;;;;;;;;;;;;;;;3.05;100.00;100491.13;4954363;29;804;-61
2024/02/29 04:08:05;;;;;;;;;;;;;;;3.08;100.00;100497.84;4954191;29;1042;-62
2024/02/29 04:10:31;;;;;;;;;;;;;;;3.04;100.00;100497.69;4954198;29;856;-61
2024/02/29 04:12:58;;;;;;;;;;;;;;;3.03;100.00;100500.75;4954155;29;851;-61
2024/02/29 04:15:24;;;;;;;;;;;;;;;2.97;100.00;100499.38;4954042;29;1886;-62
2024/02/29 04:17:51;;;;;;;;;;;;;;;2.96;100.00;100495.84;4954110;29;859;-62
2024/02/29 04:20:17;;;;;;;;;;;;;;;2.96;100.00;100493.09;4954215;29;829;-61
2024/02/29 04:22:44;;;;;;;;;;;;;;;2.97;100.00;100493.94;4954056;29;934;-61
2024/02/29 04:25:11;;;;;;;;;;;;;;;2.99;100.00;100487.00;4953996;29;843;-61
2024/02/29 04:27:37;;;;;;;;;;;;;;;2.97;100.00;100483.78;4954005;29;863;-61
2024/02/29 04:30:05;;;;;;;;;;;;;;;2.97;100.00;100488.47;4954049;29;874;-63
2024/02/29 04:32:32;;;;;;;;;;;;;;;3.11;100.00;100490.91;4953890;29;855;-62
2024/02/29 04:35:00;;;;;;;;;;;;;;;3.26;100.00;100488.34;4954021;29;1891;-62
2024/02/29 04:37:31;;;;;;;;;;;;;;;3.40;100.00;100495.44;4953837;29;874;-62
2024/02/29 04:39:57;;;;;;;;;;;;;;;3.42;100.00;100502.16;4953766;29;854;-61
2024/02/29 04:42:24;;;;;;;;;;;;;;;3.34;100.00;100503.06;4952558;29;1198;-61
2024/02/29 04:44:50;;;;;;;;;;;;;;;3.22;100.00;100508.47;4953752;29;874;-62
2024/02/29 04:47:21;;;;;;;;;;;;;;;3.08;100.00;100499.78;4952585;29;1178;-62
2024/02/29 04:49:47;;;;;;;;;;;;;;;3.01;100.00;100513.97;4953401;29;1466;-61
2024/02/29 04:52:14;;;;;;;;;;;;;;;2.97;100.00;100513.84;4936475;29;1175;-62
2024/02/29 04:54:46;;;;;;;;;;;;;;;3.03;100.00;100512.50;4952478;29;1176;-61
2024/02/29 04:57:13;;;;;;;;;;;;;;;3.13;100.00;100510.47;4953557;29;1914;-63
2024/02/29 04:59:39;;;;;;;;;;;;;;;3.21;100.00;100515.88;4953668;29;895;-61
2024/02/29 05:02:06;;;;;;;;;;;;;;;3.31;100.00;100508.38;4953697;29;928;-61
2024/02/29 05:04:33;;;;;;;;;;;;;;;3.32;100.00;100512.72;4953715;29;863;-61
2024/02/29 05:06:59;;;;;;;;;;;;;;;3.36;100.00;100528.09;4953639;29;780;-60
2024/02/29 05:09:26;;;;;;;;;;;;;;;3.42;100.00;100532.22;4957315;28;840;-60
2024/02/29 05:11:56;;;;;;;;;;;;;;;3.52;100.00;100527.47;4957579;29;840;-60
2024/02/29 05:14:23;;;;;;;;;;;;;;;3.60;100.00;100535.59;4957341;29;813;-59
2024/02/29 05:16:49;;;;;;;;;;;;;;;3.67;100.00;100529.59;4957259;29;1894;-60
2024/02/29 05:19:16;;;;;;;;;;;;;;;3.67;100.00;100526.84;4957396;29;808;-60
2024/02/29 05:21:45;;;;;;;;;;;;;;;3.72;100.00;100523.91;4957106;29;922;-60
2024/02/29 05:24:11;;;;;;;;;;;;;;;3.81;100.00;100532.00;4955991;29;887;-60
2024/02/29 05:26:38;;;;;;;;;;;;;;;3.88;100.00;100529.50;4957133;29;839;-60
2024/02/29 05:29:06;;;;;;;;;;;;;;;3.98;100.00;100526.31;4957076;29;840;-60
2024/02/29 05:31:32;;;;;;;;;;;;;;;4.11;100.00;100516.19;4957056;29;828;-60
2024/02/29 05:33:59;;;;;;;;;;;;;;;4.22;100.00;100520.06;4957083;29;883;-60
2024/02/29 05:36:25;;;;;;;;;;;;;;;4.24;100.00;100519.72;4956840;29;1891;-60
2024/02/29 05:38:52;;;;;;;;;;;;;;;4.31;100.00;100514.50;4957002;29;868;-60
2024/02/29 05:41:19;;;;;;;;;;;;;;;4.36;100.00;100518.94;4956906;29;796;-59
2024/02/29 05:43:46;;;;;;;;;;;;;;;4.48;100.00;100524.38;4957038;29;855;-59
2024/02/29 05:46:13;;;;;;;;;;;;;;;4.50;100.00;100527.56;4957013;29;930;-61
2024/02/29 05:48:39;;;;;;;;;;;;;;;4.58;100.00;100523.94;4956647;29;1414;-60
2024/02/29 05:51:08;;;;;;;;;;;;;;;4.62;100.00;100524.84;4956829;29;838;-60
2024/02/29 05:53:34;;;;;;;;;;;;;;;4.63;100.00;100522.88;4956702;29;820;-60
2024/02/29 05:56:02;;;;;;;;;;;;;;;4.76;100.00;100519.00;4956761;29;1977;-60
2024/02/29 05:58:30;;;;;;;;;;;;;;;4.82;100.00;100519.53;4955301;29;1316;-60
2024/02/29 06:00:58;;;;;;;;;;;;;;;4.97;100.00;100512.56;4956565;29;887;-60
2024/02/29 06:03:24;;;;;;;;;;;;;;;5.01;100.00;100502.50;4956376;29;904;-60
2024/02/29 06:05:51;;;;;;;;;;;;;;;4.96;100.00;100495.31;4956554;29;812;-60
2024/02/29 06:08:17;;;;;;;;;;;;;;;4.94;100.00;100505.03;4956314;29;900;-60
2024/02/29 06:10:46;;;;;;;;;;;;;;;5.14;100.00;100508.72;4956365;29;855;-60
2024/02/29 06:13:14;;;;;;;;;;;;;;;5.30;100.00;100517.81;4956326;29;945;-60
2024/02/29 06:15:41;;;;;;;;;;;;;;;5.41;100.00;100532.59;4956227;29;1966;-60
2024/02/29 06:18:08;;;;;;;;;;;;;;;5.68;100.00;100535.69;4956205;29;816;-60
2024/02/29 06:20:35;;;;;;;;;;;;;;;5.66;100.00;100532.50;4955393;28;815;-60
2024/02/29 06:23:02;;;;;;;;;;;;;;;5.76;100.00;100526.50;4956470;29;871;-60
2024/02/29 06:25:28;;;;;;;;;;;;;;;5.94;100.00;100521.47;4956105;29;828;-60
2024/02/29 06:27:55;;;;;;;;;;;;;;;6.15;100.00;100531.41;4956132;29;883;-60
2024/02/29 06:30:24;;;;;;;;;;;;;;;6.28;100.00;100539.19;4956208;29;896;-59
2024/02/29 06:32:51;;;;;;;;;;;;;;;6.19;100.00;100524.03;4955963;29;875;-60
2024/02/29 06:35:18;;;;;;;;;;;;;;;6.22;100.00;100526.88;4955815;29;1890;-60
2024/02/29 06:37:44;;;;;;;;;;;;;;;6.16;100.00;100525.53;4956303;29;895;-60
2024/02/29 06:40:10;;;;;;;;;;;;;;;6.23;100.00;100519.44;4956105;29;871;-61
2024/02/29 06:42:37;;;;;;;;;;;;;;;6.39;100.00;100520.22;4955855;29;851;-60
2024/02/29 06:45:08;;;;;;;;;;;;;;;6.49;100.00;100514.19;4955717;29;819;-61
2024/02/29 06:47:34;;;;;;;;;;;;;;;6.56;100.00;100516.28;4956187;29;918;-61
2024/02/29 06:50:01;;;;;;;;;;;;;;;6.85;100.00;100522.41;4955511;29;1446;-60
2024/02/29 06:52:28;;;;;;;;;;;;;;;6.98;100.00;100523.91;4955654;29;856;-61
2024/02/29 06:54:58;;;;;;;;;;;;;;;7.13;100.00;100520.28;4955538;29;816;-60
2024/02/29 06:57:25;;;;;;;;;;;;;;;7.08;100.00;100534.31;4955511;29;894;-60
2024/02/29 06:59:51;;;;;;;;;;;;;;;7.06;100.00;100547.63;4955437;29;807;-60
2024/02/29 07:02:18;;;;;;;;;;;;;;;6.97;100.00;100554.47;4955432;29;902;-60
2024/02/29 07:04:45;;;;;;;;;;;;;;;6.96;100.00;100550.94;4955477;29;871;-60
2024/02/29 07:07:12;;;;;;;;;;;;;;;6.86;100.00;100543.25;4955306;29;859;-60
2024/02/29 07:09:46;;;;;;;;;;;;;;;6.82;100.00;100534.91;4955352;29;911;-60
2024/02/29 07:12:13;;;;;;;;;;;;;;;6.89;100.00;100542.53;4955258;29;1011;-60
2024/02/29 07:14:39;;;;;;;;;;;;;;;6.97;100.00;100540.72;4955251;29;831;-60
2024/02/29 07:17:05;;;;;;;;;;;;;;;7.18;100.00;100541.19;4955091;29;1887;-60
2024/02/29 07:19:33;;;;;;;;;;;;;;;7.15;100.00;100539.97;4955117;29;927;-60
2024/02/29 07:22:01;;;;;;;;;;;;;;;7.20;100.00;100532.59;4937856;29;1186;-60
2024/02/29 07:24:27;;;;;;;;;;;;;;;7.25;100.00;100538.56;4955039;29;847;-60
2024/02/29 07:26:56;;;;;;;;;;;;;;;7.45;100.00;100538.59;4955004;29;891;-60
2024/02/29 07:29:23;;;;;;;;;;;;;;;7.66;100.00;100540.94;4954923;29;818;-61
2024/02/29 07:31:50;;;;;;;;;;;;;;;7.68;100.00;100544.09;4955184;28;871;-60
2024/02/29 07:34:17;;;;;;;;;;;;;;;7.68;100.00;100533.91;4954865;29;820;-60
2024/02/29 07:36:44;;;;;;;;;;;;;;;7.69;100.00;100535.50;4954773;29;1890;-60
2024/02/29 07:39:12;;;;;;;;;;;;;;;7.73;100.00;100535.56;4954613;29;828;-60
2024/02/29 07:41:38;;;;;;;;;;;;;;;8.02;100.00;100538.81;4954709;29;800;-60
2024/02/29 07:44:05;;;;;;;;;;;;;;;8.36;100.00;100535.09;4954634;29;804;-60
2024/02/29 07:46:32;;;;;;;;;;;;;;;8.64;100.00;100542.22;4954799;29;859;-60
2024/02/29 07:48:59;;;;;;;;;;;;;;;8.93;100.00;100543.41;4954291;29;1168;-60
2024/02/29 07:51:26;;;;;;;;;;;;;;;8.88;100.00;100531.91;4954541;29;851;-59
2024/02/29 07:53:51;;;;;;;;;;;;;;;8.70;100.00;100537.16;4954286;29;819;-60
2024/02/29 07:56:18;;;;;;;;;;;;;;;8.74;100.00;100536.03;4954154;29;1975;-60
2024/02/29 07:58:46;;;;;;;;;;;;;;;9.01;100.00;100535.25;4954227;29;833;-60
2024/02/29 08:01:11;;;;;;;;;;;;;;;9.14;100.00;100528.31;4954124;29;827;-61
2024/02/29 08:03:38;;;;;;;;;;;;;;;9.37;100.00;100534.50;4953594;29;863;-61
2024/02/29 08:06:06;;;;;;;;;;;;;;;9.58;100.00;100535.91;4954350;29;867;-61
2024/02/29 08:08:32;;;;;;;;;;;;;;;9.63;100.00;100532.03;4954286;29;843;-61
2024/02/29 08:10:59;;;;;;;;;;;;;;;9.85;100.00;100536.59;4954182;29;853;-61
2024/02/29 08:13:26;;;;;;;;;;;;;;;10.02;100.00;100535.16;4954197;29;867;-60
2024/02/29 08:15:52;;;;;;;;;;;;;;;9.97;100.00;100530.78;4954039;29;1956;-60
2024/02/29 08:18:18;;;;;;;;;;;;;;;9.90;100.00;100530.72;4954058;29;839;-60
2024/02/29 08:20:45;;;;;;;;;;;;;;;10.07;100.00;100529.31;4954290;29;874;-61
2024/02/29 08:23:12;;;;;;;;;;;;;;;10.26;100.00;100517.19;4954065;29;870;-60
2024/02/29 08:25:38;;;;;;;;;;;;;;;10.57;100.00;100523.38;4954020;29;1010;-60
2024/02/29 08:28:05;;;;;;;;;;;;;;;10.66;100.00;100525.81;4953931;29;852;-60
2024/02/29 08:30:32;;;;;;;;;;;;;;;10.44;100.00;100524.88;4953928;29;855;-61
2024/02/29 08:32:58;;;;;;;;;;;;;;;10.38;100.00;100519.69;4953816;29;914;-61
2024/02/29 08:35:25;;;;;;;;;;;;;;;10.22;100.00;100525.47;4953836;29;1911;-60
2024/02/29 08:37:52;;;;;;;;;;;;;;;10.43;100.00;100529.59;4953806;29;875;-60
2024/02/29 08:40:19;;;;;;;;;;;;;;;10.65;100.00;100522.25;4952557;29;905;-61
2024/02/29 08:42:46;;;;;;;;;;;;;;;10.51;100.00;100524.94;4953366;28;816;-60
2024/02/29 08:45:12;;;;;;;;;;;;;;;10.20;100.00;100522.31;4953766;29;815;-61
2024/02/29 08:47:38;;;;;;;;;;;;;;;10.22;100.00;100517.19;4954170;29;974;-61
2024/02/29 08:50:05;;;;;;;;;;;;;;;10.34;100.00;100520.84;4953575;29;1275;-61
2024/02/29 08:52:32;;;;;;;;;;;;;;;10.41;100.00;100507.06;4953633;29;868;-61
2024/02/29 08:54:58;;;;;;;;;;;;;;;10.40;100.00;100509.06;4953645;29;851;-61
2024/02/29 08:57:25;;;;;;;;;;;;;;;10.38;100.00;100499.56;4953617;29;1919;-61
2024/02/29 08:59:51;;;;;;;;;;;;;;;10.31;100.00;100505.84;4953641;29;800;-60
2024/02/29 09:02:18;;;;;;;;;;;;;;;10.38;100.00;100502.34;4953590;29;859;-61
2024/02/29 09:04:44;;;;;;;;;;;;;;;10.38;100.00;100516.16;4952316;29;1279;-61
2024/02/29 09:07:11;;;;;;;;;;;;;;;10.59;100.00;100515.50;4952407;29;872;-61
2024/02/29 09:09:41;;;;;;;;;;;;;;;10.70;100.00;100515.56;4953442;29;875;-61
2024/02/29 09:12:09;;;;;;;;;;;;;;;10.66;100.00;100517.53;4953780;29;848;-61
2024/02/29 09:14:38;;;;;;;;;;;;;;;11.04;100.00;100516.94;4953398;29;856;-61
2024/02/29 09:48:02;;;;;;;;;;;;;;;13.27;100.00;100503.06;4970144;28;1717;-54
2024/02/29 09:50:28;;;;;;;;;;;;;;;13.34;100.00;100497.53;4972584;28;917;-54
2024/02/29 09:52:55;;;;;;;;;;;;;;;13.34;100.00;100497.53;4972612;28;831;-54
2024/02/29 09:55:23;;;;;;;;;;;;;;;12.92;100.00;100499.25;4974061;28;1964;-55
2024/02/29 09:57:49;;;;;;;;;;;;;;;12.66;100.00;100495.78;4975982;28;864;-55
2024/02/29 10:00:17;;;;;;;;;;;;;;;12.61;100.00;100489.84;4976048;28;822;-54
2024/02/29 10:02:44;;;;;;;;;;;;;;;12.48;100.00;100483.13;4975789;28;926;-55
2024/02/29 10:05:10;;;;;;;;;;;;;;;12.51;100.00;100482.34;4958561;28;1534;-53
2024/02/29 10:07:47;;;;;;;;;;;;;;;12.56;100.00;100477.16;4975820;28;867;-54
2024/02/29 10:10:15;;;;;;;;;;;;;;;12.37;100.00;100489.47;4975728;28;917;-50
2024/02/29 10:12:43;;;;;;;;;;;;;;;12.17;100.00;100480.78;4958540;28;858;-47
2024/02/29 10:15:10;;;;;;;;;;;;;;;12.21;100.00;100478.81;4958407;28;1947;-49
2024/02/29 10:17:38;;;;;;;;;;;;;;;12.58;100.00;100474.00;4975587;28;890;-49
2024/02/29 10:20:11;;;;;;;;;;;;;;;12.66;100.00;100467.25;4975876;28;902;-49
2024/02/29 10:22:46;;;;;;;;;;;;;;;12.59;100.00;100461.75;4975521;28;910;-50
2024/02/29 10:25:13;;;;;;;;;;;;;;;12.69;100.00;100454.56;4974280;28;879;-51
2024/02/29 10:27:40;;;;;;;;;;;;;;;12.50;100.00;100453.03;4975581;28;815;-52
2024/02/29 10:30:14;;;;;;;;;;;;;;;12.52;100.00;100458.97;4975456;28;839;-50
2024/02/29 10:32:45;;;;;;;;;;;;;;;12.56;100.00;100443.91;4975340;28;835;-48
2024/02/29 10:35:17;;;;;;;;;;;;;;;12.92;100.00;100445.75;4975358;28;1883;-49
2024/02/29 10:37:45;;;;;;;;;;;;;;;12.77;100.00;100439.47;4975191;28;969;-49
2024/02/29 10:40:11;;;;;;;;;;;;;;;12.65;100.00;100435.16;4975230;28;882;-49
2024/02/29 10:42:39;;;;;;;;;;;;;;;12.58;100.00;100430.41;4957903;28;907;-51
2024/02/29 10:45:11;;;;;;;;;;;;;;;12.46;100.00;100428.88;4975158;28;823;-52
2024/02/29 10:47:40;;;;;;;;;;;;;;;12.35;100.00;100433.66;4975070;28;1369;-49
2024/02/29 10:50:11;;;;;;;;;;;;;;;12.39;100.00;100426.13;4975057;28;820;-50
2024/02/29 10:52:44;;;;;;;;;;;;;;;12.66;100.00;100420.09;4974987;28;1189;-50
2024/02/29 10:55:12;;;;;;;;;;;;;;;12.77;100.00;100420.84;4974917;28;1910;-52
2024/02/29 10:57:47;;;;;;;;;;;;;;;13.04;100.00;100414.78;4974999;28;843;-50
2024/02/29 11:00:14;;;;;;;;;;;;;;;13.31;100.00;100415.03;4974901;28;816;-52
2024/02/29 11:02:41;;;;;;;;;;;;;;;13.34;100.00;100419.03;4974798;28;858;-52
2024/02/29 11:05:09;;;;;;;;;;;;;;;13.81;100.00;100419.47;4974650;28;791;-52
2024/02/29 11:07:35;;;;;;;;;;;;;;;14.39;100.00;100422.50;4957504;28;849;-53
2024/02/29 11:10:04;;;;;;;;;;;;;;;15.10;100.00;100418.84;4975042;28;835;-56
2024/02/29 11:12:30;;;;;;;;;;;;;;;15.51;95.50;100420.69;4974529;28;934;-55
2024/02/29 11:14:58;;;;;;;;;;;;;;;15.95;92.30;100417.22;4974595;28;939;-57
2024/02/29 11:17:33;;;;;;;;;;;;;;;16.07;90.37;100417.41;4974490;28;1945;-56
2024/02/29 11:20:03;;;;;;;;;;;;;;;15.91;88.59;100406.13;4958102;28;926;-56
2024/02/29 11:22:33;;;;;;;;;;;;;;;16.08;87.52;100410.59;4974554;28;904;-58
2024/02/29 11:25:07;;;;;;;;;;;;;;;16.45;86.62;100405.94;4973947;28;902;-54
2024/02/29 11:27:34;;;;;;;;;;;;;;;16.53;83.43;100404.56;4974441;28;835;-55
2024/02/29 11:30:00;;;;;;;;;;;;;;;15.95;86.59;100409.63;4974145;28;879;-55
2024/02/29 11:32:34;;;;;;;;;;;;;;;15.53;89.61;100409.09;4974322;28;803;-49
2024/02/29 11:35:01;;;;;;;;;;;;;;;14.84;94.78;100411.25;4974090;28;863;-53
2024/02/29 11:37:32;;;;;;;;;;;;;;;14.14;100.00;100409.63;4974447;28;1944;-51
2024/02/29 11:40:05;;;;;;;;;;;;;;;13.84;100.00;100407.53;4974203;28;857;-51
2024/02/29 11:42:32;;;;;;;;;;;;;;;13.57;100.00;100408.16;4974272;28;822;-50
2024/02/29 11:44:58;;;;;;;;;;;;;;;13.52;100.00;100405.78;4974088;28;990;-51
2024/02/29 11:47:25;;;;;;;;;;;;;;;13.41;100.00;100399.53;4973283;28;1586;-55
2024/02/29 11:49:52;;;;;;;;;;;;;;;13.35;100.00;100393.59;4973892;28;983;-53
2024/02/29 11:52:19;;;;;;;;;;;;;;;13.47;100.00;100395.91;4973892;28;811;-51
2024/02/29 11:54:46;;;;;;;;;;;;;;;13.36;100.00;100395.19;4973757;28;935;-56
2024/02/29 11:57:12;;;;;;;;;;;;;;;13.02;100.00;100393.00;4973767;28;1969;-53
2024/02/29 11:59:39;;;;;;;;;;;;;;;12.92;100.00;100381.94;4973791;28;889;-53
2024/02/29 12:02:06;;;;;;;;;;;;;;;13.04;100.00;100387.03;4973673;28;934;-53
2024/02/29 12:04:32;;;;;;;;;;;;;;;13.04;100.00;100387.03;4972401;28;1186;-54
2024/02/29 12:06:59;;;;;;;;;;;;;;;13.11;100.00;100375.91;4974081;28;818;-55
2024/02/29 12:09:26;;;;;;;;;;;;;;;13.05;100.00;100372.75;4956257;28;1335;-55
2024/02/29 12:11:53;;;;;;;;;;;;;;;13.15;100.00;100365.56;4973883;28;924;-53
2024/02/29 12:14:22;;;;;;;;;;;;;;;13.02;100.00;100376.34;4973491;28;871;-53
2024/02/29 12:16:49;;;;;;;;;;;;;;;13.03;100.00;100372.34;4973235;28;1952;-53
2024/02/29 12:19:16;;;;;;;;;;;;;;;12.90;100.00;100360.16;4973111;28;958;-50
2024/02/29 12:21:43;;;;;;;;;;;;;;;12.74;100.00;100349.56;4973761;28;800;-56
2024/02/29 12:24:10;;;;;;;;;;;;;;;12.45;100.00;100359.97;4973472;28;827;-55
2024/02/29 12:26:38;;;;;;;;;;;;;;;12.26;100.00;100358.44;4973291;28;845;-56
2024/02/29 12:29:07;;;;;;;;;;;;;;;12.22;100.00;100355.69;4973245;28;891;-55
2024/02/29 12:31:34;;;;;;;;;;;;;;;12.12;100.00;100355.69;4973275;28;808;-53
2024/02/29 12:34:03;;;;;;;;;;;;;;;11.91;100.00;100342.72;4973270;28;894;-56
2024/02/29 12:36:29;;;;;;;;;;;;;;;11.79;100.00;100346.63;4972982;28;1899;-52
2024/02/29 12:38:57;;;;;;;;;;;;;;;11.70;100.00;100347.03;4956088;28;1297;-53
2024/02/29 12:41:24;;;;;;;;;;;;;;;11.84;100.00;100346.22;4973126;28;1000;-53
2024/02/29 12:43:54;;;;;;;;;;;;;;;11.72;100.00;100355.75;4973159;28;956;-49
2024/02/29 12:46:20;;;;;;;;;;;;;;;11.56;100.00;100353.38;4973203;28;961;-54
2024/02/29 12:48:47;;;;;;;;;;;;;;;11.51;100.00;100353.78;4972967;28;1283;-54
2024/02/29 12:51:13;;;;;;;;;;;;;;;11.57;100.00;100354.19;4973113;28;1042;-55
2024/02/29 12:53:39;;;;;;;;;;;;;;;11.56;100.00;100356.13;4973072;28;847;-51
2024/02/29 12:56:06;;;;;;;;;;;;;;;11.69;100.00;100358.50;4972912;28;1938;-52
2024/02/29 12:58:33;;;;;;;;;;;;;;;11.86;100.00;100357.69;4973307;28;847;-52
2024/02/29 13:00:59;;;;;;;;;;;;;;;12.01;100.00;100359.31;4972802;28;939;-52
2024/02/29 13:03:27;;;;;;;;;;;;;;;12.16;100.00;100359.25;4973067;28;867;-54
2024/02/29 13:05:54;;;;;;;;;;;;;;;12.25;100.00;100362.41;4972812;28;874;-52
2024/02/29 13:08:20;;;;;;;;;;;;;;;12.38;100.00;100357.22;4972902;28;1064;-56
2024/02/29 13:10:47;;;;;;;;;;;;;;;12.37;100.00;100350.88;4972900;28;820;-51
2024/02/29 13:13:13;;;;;;;;;;;;;;;12.62;100.00;100355.53;4972905;28;835;-52
2024/02/29 13:15:40;;;;;;;;;;;;;;;13.43;100.00;100355.47;4972681;28;1894;-51
2024/02/29 13:18:07;;;;;;;;;;;;;;;13.83;100.00;100351.16;4972820;28;812;-56
2024/02/29 13:20:33;;;;;;;;;;;;;;;14.31;100.00;100346.69;4972762;28;847;-56